Hyde Park, Utah
Current Conditions -  °F | °C
As of 11:51 AM on Friday 24 Oct 2014 (Local Time) from KLGU Reporting Station
Clear Clear  
Wind Chill: 57°   Ceiling: Unl
Heat Index: 57°   Visibility: 10mi
Dew Point: 35°   Wind: 0mph
Humidity: 44%   Direction: NA
Pressure: 30.2"   Gusts: NA
Location:  41.8°N, 111.82°W
Report Text: KLGU 241751Z AUTO 00000KT 10SM CLR 14/02 A3020 RMK AO2 SLP206 T01390017 10139 20006 50000 TSNO
Loading
Personal Weather Stations






























Interactive Weather Map
Tropical Storm Tracking
New forecast layout! Learn more

10-Day Weather Forecast

Advertisements
Track Severe Weather on mobile